sensor_id;sensor_type;location;lat;lon;timestamp;pressure;altitude;pressure_sealevel;temperature;humidity
10064;BME280;5071;52.360;13.134;2023-03-26T00:02:56;99772.25;;;7.48;95.36
10064;BME280;5071;52.360;13.134;2023-03-26T00:08:00;99780.16;;;7.50;96.11
10064;BME280;5071;52.360;13.134;2023-03-26T00:13:02;99787.97;;;7.56;95.37
10064;BME280;5071;52.360;13.134;2023-03-26T00:18:05;99784.50;;;7.52;95.49
10064;BME280;5071;52.360;13.134;2023-03-26T00:23:08;99788.13;;;7.47;96.12
10064;BME280;5071;52.360;13.134;2023-03-26T00:28:10;99797.00;;;7.43;95.54
10064;BME280;5071;52.360;13.134;2023-03-26T00:33:12;99785.44;;;7.51;94.14
10064;BME280;5071;52.360;13.134;2023-03-26T00:38:16;99795.03;;;7.55;94.04
10064;BME280;5071;52.360;13.134;2023-03-26T00:43:20;99791.44;;;7.59;94.29
10064;BME280;5071;52.360;13.134;2023-03-26T00:48:22;99789.66;;;7.60;94.79
10064;BME280;5071;52.360;13.134;2023-03-26T00:53:46;99800.34;;;7.52;95.61
10064;BME280;5071;52.360;13.134;2023-03-26T00:58:48;99796.03;;;7.47;96.40
10064;BME280;5071;52.360;13.134;2023-03-26T01:03:51;99784.69;;;7.42;96.95
10064;BME280;5071;52.360;13.134;2023-03-26T01:09:13;99778.66;;;7.33;98.62
10064;BME280;5071;52.360;13.134;2023-03-26T01:14:18;99787.59;;;7.23;98.79
10064;BME280;5071;52.360;13.134;2023-03-26T01:19:26;99791.09;;;7.24;99.24
10064;BME280;5071;52.360;13.134;2023-03-26T01:24:31;99793.75;;;7.22;98.95
10064;BME280;5071;52.360;13.134;2023-03-26T01:29:37;99777.03;;;7.23;99.06
10064;BME280;5071;52.360;13.134;2023-03-26T01:34:49;99784.97;;;7.23;98.96
10064;BME280;5071;52.360;13.134;2023-03-26T01:39:56;99790.22;;;7.25;98.52
10064;BME280;5071;52.360;13.134;2023-03-26T01:45:03;99776.09;;;7.27;98.10
10064;BME280;5071;52.360;13.134;2023-03-26T01:50:08;99786.69;;;7.24;97.99
10064;BME280;5071;52.360;13.134;2023-03-26T01:55:12;99781.31;;;7.32;96.74
10064;BME280;5071;52.360;13.134;2023-03-26T02:00:19;99776.84;;;7.35;96.19
10064;BME280;5071;52.360;13.134;2023-03-26T02:05:28;99776.94;;;7.29;95.52
10064;BME280;5071;52.360;13.134;2023-03-26T02:10:36;99775.31;;;7.20;95.97
10064;BME280;5071;52.360;13.134;2023-03-26T02:15:53;99796.28;;;7.30;95.06
10064;BME280;5071;52.360;13.134;2023-03-26T02:20:56;99798.75;;;7.44;94.73
10064;BME280;5071;52.360;13.134;2023-03-26T02:26:00;99806.69;;;7.42;96.16
10064;BME280;5071;52.360;13.134;2023-03-26T02:31:02;99820.88;;;7.35;95.89
10064;BME280;5071;52.360;13.134;2023-03-26T02:36:06;99828.03;;;7.25;97.22
10064;BME280;5071;52.360;13.134;2023-03-26T02:41:09;99829.09;;;7.13;98.38
10064;BME280;5071;52.360;13.134;2023-03-26T02:46:11;99829.13;;;7.09;100.00
10064;BME280;5071;52.360;13.134;2023-03-26T02:51:13;99838.84;;;7.05;99.75
10064;BME280;5071;52.360;13.134;2023-03-26T02:56:17;99823.84;;;7.09;99.55
10064;BME280;5071;52.360;13.134;2023-03-26T03:01:20;99817.75;;;7.05;100.00
10064;BME280;5071;52.360;13.134;2023-03-26T03:06:22;99831.78;;;7.07;100.00
10064;BME280;5071;52.360;13.134;2023-03-26T03:11:25;99833.56;;;7.07;100.00
10064;BME280;5071;52.360;13.134;2023-03-26T03:16:28;99846.72;;;7.10;100.00
10064;BME280;5071;52.360;13.134;2023-03-26T03:21:31;99836.19;;;7.07;99.68
10064;BME280;5071;52.360;13.134;2023-03-26T03:26:34;99843.25;;;7.08;98.39
10064;BME280;5071;52.360;13.134;2023-03-26T03:31:36;99846.72;;;7.10;97.12
10064;BME280;5071;52.360;13.134;2023-03-26T03:36:38;99850.25;;;7.06;97.84
10064;BME280;5071;52.360;13.134;2023-03-26T03:41:42;99846.84;;;6.99;98.14
10064;BME280;5071;52.360;13.134;2023-03-26T03:46:44;99846.13;;;6.86;99.07
10064;BME280;5071;52.360;13.134;2023-03-26T03:51:46;99849.78;;;6.76;99.84
10064;BME280;5071;52.360;13.134;2023-03-26T03:56:50;99859.56;;;6.65;100.00
10064;BME280;5071;52.360;13.134;2023-03-26T04:01:52;99854.31;;;6.61;100.00
10064;BME280;5071;52.360;13.134;2023-03-26T04:06:54;99860.53;;;6.51;100.00
10064;BME280;5071;52.360;13.134;2023-03-26T04:11:57;99854.47;;;6.46;100.00
10064;BME280;5071;52.360;13.134;2023-03-26T04:17:03;99869.25;;;6.61;100.00
10064;BME280;5071;52.360;13.134;2023-03-26T04:22:05;99854.13;;;6.77;100.00
10064;BME280;5071;52.360;13.134;2023-03-26T04:27:12;99851.38;;;6.86;99.71
10064;BME280;5071;52.360;13.134;2023-03-26T04:32:21;99852.31;;;6.82;99.74
10064;BME280;5071;52.360;13.134;2023-03-26T04:37:26;99853.09;;;6.89;99.25
10064;BME280;5071;52.360;13.134;2023-03-26T04:42:30;99858.38;;;6.92;99.83
10064;BME280;5071;52.360;13.134;2023-03-26T04:47:32;99852.31;;;6.85;100.00
10064;BME280;5071;52.360;13.134;2023-03-26T04:52:35;99868.16;;;6.82;100.00
10064;BME280;5071;52.360;13.134;2023-03-26T04:57:40;99857.59;;;6.82;100.00
10064;BME280;5071;52.360;13.134;2023-03-26T05:02:44;99862.88;;;6.82;100.00
10064;BME280;5071;52.360;13.134;2023-03-26T05:07:45;99850.63;;;6.75;100.00
10064;BME280;5071;52.360;13.134;2023-03-26T05:12:49;99854.22;;;6.68;100.00
10064;BME280;5071;52.360;13.134;2023-03-26T05:17:51;99855.91;;;6.78;100.00
10064;BME280;5071;52.360;13.134;2023-03-26T05:22:53;99860.22;;;6.84;100.00
10064;BME280;5071;52.360;13.134;2023-03-26T05:27:57;99859.31;;;6.86;100.00
10064;BME280;5071;52.360;13.134;2023-03-26T05:32:59;99860.13;;;6.93;100.00
10064;BME280;5071;52.360;13.134;2023-03-26T05:38:01;99860.97;;;6.95;100.00
10064;BME280;5071;52.360;13.134;2023-03-26T05:43:04;99862.69;;;6.99;100.00
10064;BME280;5071;52.360;13.134;2023-03-26T05:48:07;99871.47;;;6.99;100.00
10064;BME280;5071;52.360;13.134;2023-03-26T05:53:09;99871.53;;;6.96;100.00
10064;BME280;5071;52.360;13.134;2023-03-26T05:58:12;99867.00;;;7.05;100.00
10064;BME280;5071;52.360;13.134;2023-03-26T06:03:15;99861.72;;;7.06;100.00
10064;BME280;5071;52.360;13.134;2023-03-26T06:08:17;99864.25;;;7.14;100.00
10064;BME280;5071;52.360;13.134;2023-03-26T06:13:21;99872.06;;;7.22;99.77
10064;BME280;5071;52.360;13.134;2023-03-26T06:18:23;99883.44;;;7.28;99.99
10064;BME280;5071;52.360;13.134;2023-03-26T06:23:26;99881.66;;;7.30;99.59
10064;BME280;5071;52.360;13.134;2023-03-26T06:28:29;99894.88;;;7.29;99.61
10064;BME280;5071;52.360;13.134;2023-03-26T06:33:32;99887.09;;;7.16;100.00
10064;BME280;5071;52.360;13.134;2023-03-26T06:38:33;99896.97;;;7.02;100.00
10064;BME280;5071;52.360;13.134;2023-03-26T06:43:36;99889.91;;;7.04;97.16
10064;BME280;5071;52.360;13.134;2023-03-26T06:48:39;99896.91;;;7.04;97.06
10064;BME280;5071;52.360;13.134;2023-03-26T06:53:41;99895.19;;;7.03;96.91
10064;BME280;5071;52.360;13.134;2023-03-26T06:58:45;99902.19;;;7.05;96.08
10064;BME280;5071;52.360;13.134;2023-03-26T07:03:47;99896.78;;;7.16;94.52
10064;BME280;5071;52.360;13.134;2023-03-26T07:08:49;99896.34;;;7.50;94.93
10064;BME280;5071;52.360;13.134;2023-03-26T07:13:53;99893.69;;;7.53;93.21
10064;BME280;5071;52.360;13.134;2023-03-26T07:18:55;99889.84;;;7.75;92.75
10064;BME280;5071;52.360;13.134;2023-03-26T07:23:58;99893.66;;;8.13;91.53
10064;BME280;5071;52.360;13.134;2023-03-26T07:29:07;99899.47;;;8.34;90.92
10064;BME280;5071;52.360;13.134;2023-03-26T07:34:33;99902.38;;;8.18;92.27
10064;BME280;5071;52.360;13.134;2023-03-26T07:39:43;99897.94;;;8.21;93.28
10064;BME280;5071;52.360;13.134;2023-03-26T07:44:54;99891.84;;;8.17;92.64
10064;BME280;5071;52.360;13.134;2023-03-26T07:50:03;99884.97;;;8.05;94.07
10064;BME280;5071;52.360;13.134;2023-03-26T07:55:07;99878.88;;;8.00;93.49
10064;BME280;5071;52.360;13.134;2023-03-26T08:00:14;99875.28;;;8.06;92.49
10064;BME280;5071;52.360;13.134;2023-03-26T08:05:23;99875.00;;;8.23;91.42
10064;BME280;5071;52.360;13.134;2023-03-26T08:10:33;99877.63;;;8.24;91.44
10064;BME280;5071;52.360;13.134;2023-03-26T08:15:44;99877.81;;;8.65;88.67
10064;BME280;5071;52.360;13.134;2023-03-26T08:20:49;99885.66;;;8.71;87.94
10064;BME280;5071;52.360;13.134;2023-03-26T08:25:58;99877.34;;;8.89;86.80
10064;BME280;5071;52.360;13.134;2023-03-26T08:31:08;99882.34;;;9.05;85.87
10064;BME280;5071;52.360;13.134;2023-03-26T08:36:11;99877.75;;;9.13;84.24
10064;BME280;5071;52.360;13.134;2023-03-26T08:41:43;99870.06;;;9.01;83.36
10064;BME280;5071;52.360;13.134;2023-03-26T08:47:07;99871.16;;;8.90;84.58
10064;BME280;5071;52.360;13.134;2023-03-26T08:52:42;99858.63;;;8.99;82.05
10064;BME280;5071;52.360;13.134;2023-03-26T09:04:03;99851.44;;;9.05;80.42
10064;BME280;5071;52.360;13.134;2023-03-26T09:09:30;99857.41;;;9.15;80.11
10064;BME280;5071;52.360;13.134;2023-03-26T09:15:00;99846.72;;;9.60;78.51
10064;BME280;5071;52.360;13.134;2023-03-26T09:20:38;99845.63;;;9.70;76.57
10064;BME280;5071;52.360;13.134;2023-03-26T09:26:03;99839.66;;;10.34;75.76
10064;BME280;5071;52.360;13.134;2023-03-26T09:31:19;99840.31;;;11.08;70.80
10064;BME280;5071;52.360;13.134;2023-03-26T09:36:51;99840.06;;;10.84;70.68
10064;BME280;5071;52.360;13.134;2023-03-26T09:42:05;99841.81;;;11.17;70.18
10064;BME280;5071;52.360;13.134;2023-03-26T09:47:24;99835.31;;;11.27;69.69
10064;BME280;5071;52.360;13.134;2023-03-26T09:52:52;99845.47;;;11.42;70.55
10064;BME280;5071;52.360;13.134;2023-03-26T09:58:10;99843.16;;;11.60;66.68
10064;BME280;5071;52.360;13.134;2023-03-26T10:03:24;99838.81;;;10.98;67.45
10064;BME280;5071;52.360;13.134;2023-03-26T10:08:57;99848.81;;;11.19;66.96
10064;BME280;5071;52.360;13.134;2023-03-26T10:14:11;99838.47;;;11.10;68.58
10064;BME280;5071;52.360;13.134;2023-03-26T10:19:32;99843.53;;;10.55;67.38
10064;BME280;5071;52.360;13.134;2023-03-26T10:24:56;99839.22;;;11.15;66.94
10064;BME280;5071;52.360;13.134;2023-03-26T10:30:43;99834.47;;;10.95;65.34
10064;BME280;5071;52.360;13.134;2023-03-26T10:35:58;99834.34;;;10.68;65.49
10064;BME280;5071;52.360;13.134;2023-03-26T10:41:09;99835.31;;;10.30;68.73
10064;BME280;5071;52.360;13.134;2023-03-26T10:51:51;99841.00;;;10.15;68.52
10064;BME280;5071;52.360;13.134;2023-03-26T10:56:59;99825.50;;;9.99;68.89
10064;BME280;5071;52.360;13.134;2023-03-26T11:02:19;99809.59;;;10.68;67.83
10064;BME280;5071;52.360;13.134;2023-03-26T11:07:35;99810.84;;;11.16;66.62
10064;BME280;5071;52.360;13.134;2023-03-26T11:12:43;99811.25;;;11.60;66.38
10064;BME280;5071;52.360;13.134;2023-03-26T11:17:56;99821.22;;;11.81;64.98
10064;BME280;5071;52.360;13.134;2023-03-26T11:23:13;99820.03;;;12.45;61.33
10064;BME280;5071;52.360;13.134;2023-03-26T11:28:28;99807.19;;;13.05;59.21
10064;BME280;5071;52.360;13.134;2023-03-26T11:33:34;99803.34;;;12.65;58.34
10064;BME280;5071;52.360;13.134;2023-03-26T11:38:48;99790.28;;;12.57;59.29
10064;BME280;5071;52.360;13.134;2023-03-26T11:43:55;99788.81;;;12.74;59.55
10064;BME280;5071;52.360;13.134;2023-03-26T11:48:58;99785.06;;;12.29;59.21
10064;BME280;5071;52.360;13.134;2023-03-26T11:54:03;99786.72;;;12.33;58.30
10064;BME280;5071;52.360;13.134;2023-03-26T11:59:11;99775.47;;;12.99;55.64
10064;BME280;5071;52.360;13.134;2023-03-26T12:04:17;99760.81;;;13.56;56.55
10064;BME280;5071;52.360;13.134;2023-03-26T12:09:19;99754.22;;;13.43;56.58
10064;BME280;5071;52.360;13.134;2023-03-26T12:14:24;99751.41;;;13.24;55.90
10064;BME280;5071;52.360;13.134;2023-03-26T12:19:35;99742.75;;;12.72;56.91
10064;BME280;5071;52.360;13.134;2023-03-26T12:24:38;99742.34;;;12.82;58.34
10064;BME280;5071;52.360;13.134;2023-03-26T12:29:42;99746.38;;;13.16;58.44
10064;BME280;5071;52.360;13.134;2023-03-26T12:34:43;99745.44;;;12.47;58.99
10064;BME280;5071;52.360;13.134;2023-03-26T12:39:45;99748.44;;;12.61;58.92
10064;BME280;5071;52.360;13.134;2023-03-26T12:45:12;99750.28;;;13.53;57.99
10064;BME280;5071;52.360;13.134;2023-03-26T12:50:15;99753.91;;;14.15;56.31
10064;BME280;5071;52.360;13.134;2023-03-26T12:55:32;99748.69;;;13.70;54.92
10064;BME280;5071;52.360;13.134;2023-03-26T13:00:46;99750.16;;;13.99;54.58
10064;BME280;5071;52.360;13.134;2023-03-26T13:06:02;99748.66;;;13.71;55.61
10064;BME280;5071;52.360;13.134;2023-03-26T13:11:15;99747.19;;;13.18;54.73
10064;BME280;5071;52.360;13.134;2023-03-26T13:16:26;99736.38;;;12.76;57.54
10064;BME280;5071;52.360;13.134;2023-03-26T13:21:40;99741.66;;;13.01;57.67
10064;BME280;5071;52.360;13.134;2023-03-26T13:26:54;99731.78;;;12.79;56.93
10064;BME280;5071;52.360;13.134;2023-03-26T13:32:08;99720.44;;;12.74;57.96
10064;BME280;5071;52.360;13.134;2023-03-26T13:37:16;99726.41;;;13.05;57.46
10064;BME280;5071;52.360;13.134;2023-03-26T13:42:30;99719.94;;;13.56;56.55
10064;BME280;5071;52.360;13.134;2023-03-26T13:47:43;99719.31;;;13.49;55.62
10064;BME280;5071;52.360;13.134;2023-03-26T13:52:49;99721.34;;;12.97;58.47
10064;BME280;5071;52.360;13.134;2023-03-26T13:57:59;99715.13;;;12.51;59.83
10064;BME280;5071;52.360;13.134;2023-03-26T14:03:09;99710.03;;;12.44;60.06
10064;BME280;5071;52.360;13.134;2023-03-26T14:08:18;99703.09;;;12.88;59.12
10064;BME280;5071;52.360;13.134;2023-03-26T14:13:25;99698.22;;;12.99;59.55
10064;BME280;5071;52.360;13.134;2023-03-26T14:18:36;99707.47;;;13.56;58.07
10064;BME280;5071;52.360;13.134;2023-03-26T14:29:27;99704.97;;;13.31;58.46
10064;BME280;5071;52.360;13.134;2023-03-26T14:34:41;99708.53;;;12.84;59.84
10064;BME280;5071;52.360;13.134;2023-03-26T14:39:56;99698.22;;;12.52;59.71
10064;BME280;5071;52.360;13.134;2023-03-26T14:50:52;99696.03;;;12.14;59.64
10064;BME280;5071;52.360;13.134;2023-03-26T14:56:32;99692.19;;;12.23;61.28
10064;BME280;5071;52.360;13.134;2023-03-26T15:02:02;99687.56;;;12.03;60.26
10064;BME280;5071;52.360;13.134;2023-03-26T15:13:19;99684.09;;;12.26;59.88
10064;BME280;5071;52.360;13.134;2023-03-26T15:24:16;99681.00;;;12.37;59.79
10064;BME280;5071;52.360;13.134;2023-03-26T15:29:48;99681.56;;;11.98;60.48
10064;BME280;5071;52.360;13.134;2023-03-26T15:40:48;99686.81;;;11.46;64.51
10064;BME280;5071;52.360;13.134;2023-03-26T15:46:23;99690.53;;;11.14;65.35
10064;BME280;5071;52.360;13.134;2023-03-26T15:51:36;99677.78;;;10.97;65.43
10064;BME280;5071;52.360;13.134;2023-03-26T15:57:07;99686.47;;;11.02;65.63
10064;BME280;5071;52.360;13.134;2023-03-26T16:02:25;99683.44;;;10.84;66.42
10064;BME280;5071;52.360;13.134;2023-03-26T16:07:49;99682.03;;;10.73;66.54
10064;BME280;5071;52.360;13.134;2023-03-26T16:13:16;99680.53;;;10.64;66.95
10064;BME280;5071;52.360;13.134;2023-03-26T16:18:33;99688.13;;;10.46;67.36
10064;BME280;5071;52.360;13.134;2023-03-26T16:23:51;99692.16;;;10.60;68.48
10064;BME280;5071;52.360;13.134;2023-03-26T16:29:05;99686.47;;;10.42;68.04
10064;BME280;5071;52.360;13.134;2023-03-26T16:34:26;99693.09;;;10.26;69.03
10064;BME280;5071;52.360;13.134;2023-03-26T16:39:40;99703.41;;;10.04;69.19
10064;BME280;5071;52.360;13.134;2023-03-26T16:44:46;99698.41;;;9.93;69.59
10064;BME280;5071;52.360;13.134;2023-03-26T16:50:05;99705.88;;;9.77;69.75
10064;BME280;5071;52.360;13.134;2023-03-26T16:55:18;99697.31;;;9.67;70.12
10064;BME280;5071;52.360;13.134;2023-03-26T17:00:39;99709.31;;;9.46;70.17
10064;BME280;5071;52.360;13.134;2023-03-26T17:05:57;99717.50;;;9.36;70.95
10064;BME280;5071;52.360;13.134;2023-03-26T17:11:08;99720.41;;;9.25;71.26
10064;BME280;5071;52.360;13.134;2023-03-26T17:16:20;99718.25;;;9.05;71.25
10064;BME280;5071;52.360;13.134;2023-03-26T17:21:33;99728.88;;;9.02;71.95
10064;BME280;5071;52.360;13.134;2023-03-26T17:26:56;99729.94;;;8.93;71.43
10064;BME280;5071;52.360;13.134;2023-03-26T17:32:06;99728.25;;;8.90;72.24
10064;BME280;5071;52.360;13.134;2023-03-26T17:49:18;99739.91;;;8.80;72.87
10064;BME280;5071;52.360;13.134;2023-03-26T17:54:26;99742.53;;;8.82;72.18
10064;BME280;5071;52.360;13.134;2023-03-26T17:59:31;99743.66;;;8.71;71.90
10064;BME280;5071;52.360;13.134;2023-03-26T18:04:36;99751.63;;;8.70;72.35
10064;BME280;5071;52.360;13.134;2023-03-26T18:09:50;99755.09;;;8.72;72.15
10064;BME280;5071;52.360;13.134;2023-03-26T18:15:25;99756.19;;;8.62;72.53
10064;BME280;5071;52.360;13.134;2023-03-26T18:20:34;99758.00;;;8.60;72.60
10064;BME280;5071;52.360;13.134;2023-03-26T18:25:37;99766.16;;;8.49;73.75
10064;BME280;5071;52.360;13.134;2023-03-26T18:30:47;99765.47;;;8.36;73.90
10064;BME280;5071;52.360;13.134;2023-03-26T18:35:53;99762.00;;;8.34;73.71
10064;BME280;5071;52.360;13.134;2023-03-26T18:40:55;99762.13;;;8.28;73.51
10064;BME280;5071;52.360;13.134;2023-03-26T18:45:57;99763.03;;;8.24;73.44
10064;BME280;5071;52.360;13.134;2023-03-26T18:51:03;99771.09;;;8.17;72.16
10064;BME280;5071;52.360;13.134;2023-03-26T18:56:18;99772.88;;;8.18;71.61
10064;BME280;5071;52.360;13.134;2023-03-26T19:01:20;99764.94;;;8.18;71.00
10064;BME280;5071;52.360;13.134;2023-03-26T19:06:28;99771.09;;;8.17;69.74
10064;BME280;5071;52.360;13.134;2023-03-26T19:11:31;99771.06;;;8.21;68.57
10064;BME280;5071;52.360;13.134;2023-03-26T19:16:34;99774.69;;;8.15;68.61
10064;BME280;5071;52.360;13.134;2023-03-26T19:21:38;99774.66;;;8.16;68.24
10064;BME280;5071;52.360;13.134;2023-03-26T19:26:41;99774.72;;;8.13;67.50
10064;BME280;5071;52.360;13.134;2023-03-26T19:31:48;99780.16;;;8.04;68.06
10064;BME280;5071;52.360;13.134;2023-03-26T19:36:55;99781.97;;;8.01;68.43
10064;BME280;5071;52.360;13.134;2023-03-26T19:41:57;99786.56;;;7.91;68.24
10064;BME280;5071;52.360;13.134;2023-03-26T19:47:01;99791.03;;;7.86;69.15
10064;BME280;5071;52.360;13.134;2023-03-26T19:52:11;99800.59;;;7.94;67.17
10064;BME280;5071;52.360;13.134;2023-03-26T19:57:14;99797.13;;;7.91;67.63
10064;BME280;5071;52.360;13.134;2023-03-26T20:02:17;99800.03;;;7.75;67.20
10064;BME280;5071;52.360;13.134;2023-03-26T20:07:23;99800.16;;;7.66;66.72
10064;BME280;5071;52.360;13.134;2023-03-26T20:12:37;99800.22;;;7.60;64.65
10064;BME280;5071;52.360;13.134;2023-03-26T20:17:39;99795.13;;;7.51;64.76
10064;BME280;5071;52.360;13.134;2023-03-26T20:22:43;99815.34;;;7.52;64.98
10064;BME280;5071;52.360;13.134;2023-03-26T20:27:45;99810.09;;;7.49;64.37
10064;BME280;5071;52.360;13.134;2023-03-26T20:32:47;99819.66;;;7.56;63.82
10064;BME280;5071;52.360;13.134;2023-03-26T20:37:51;99818.13;;;7.43;64.00
10064;BME280;5071;52.360;13.134;2023-03-26T20:42:53;99822.88;;;7.17;66.28
10064;BME280;5071;52.360;13.134;2023-03-26T20:47:55;99836.22;;;7.04;66.33
10064;BME280;5071;52.360;13.134;2023-03-26T20:52:59;99853.16;;;6.86;65.45
10064;BME280;5071;52.360;13.134;2023-03-26T20:58:00;99848.94;;;6.71;65.78
10064;BME280;5071;52.360;13.134;2023-03-26T21:03:04;99867.50;;;6.58;66.03
10064;BME280;5071;52.360;13.134;2023-03-26T21:08:13;99864.94;;;6.55;65.59
10064;BME280;5071;52.360;13.134;2023-03-26T21:13:25;99860.69;;;6.39;66.15
10064;BME280;5071;52.360;13.134;2023-03-26T21:18:31;99874.81;;;6.29;65.81
10064;BME280;5071;52.360;13.134;2023-03-26T21:23:37;99884.47;;;6.33;65.53
10064;BME280;5071;52.360;13.134;2023-03-26T21:28:43;99882.72;;;6.29;65.46
10064;BME280;5071;52.360;13.134;2023-03-26T21:33:47;99899.38;;;6.37;64.58
10064;BME280;5071;52.360;13.134;2023-03-26T21:38:52;99885.41;;;6.26;64.60
10064;BME280;5071;52.360;13.134;2023-03-26T21:43:54;99890.69;;;6.26;64.66
10064;BME280;5071;52.360;13.134;2023-03-26T21:48:56;99901.22;;;6.24;65.29
10064;BME280;5071;52.360;13.134;2023-03-26T21:54:00;99899.50;;;6.21;64.53
10064;BME280;5071;52.360;13.134;2023-03-26T21:59:08;99900.56;;;5.99;65.37
10064;BME280;5071;52.360;13.134;2023-03-26T22:04:15;99897.88;;;6.00;65.41
10064;BME280;5071;52.360;13.134;2023-03-26T22:09:22;99904.06;;;5.99;65.55
10064;BME280;5071;52.360;13.134;2023-03-26T22:14:37;99904.94;;;5.98;65.51
10064;BME280;5071;52.360;13.134;2023-03-26T22:19:39;99906.72;;;5.89;65.44
10064;BME280;5071;52.360;13.134;2023-03-26T22:24:42;99908.59;;;5.71;65.99
10064;BME280;5071;52.360;13.134;2023-03-26T22:29:44;99905.13;;;5.63;66.87
10064;BME280;5071;52.360;13.134;2023-03-26T22:34:46;99909.53;;;5.61;66.73
10064;BME280;5071;52.360;13.134;2023-03-26T22:39:49;99921.88;;;5.50;67.81
10064;BME280;5071;52.360;13.134;2023-03-26T22:44:51;99931.56;;;5.40;69.63
10064;BME280;5071;52.360;13.134;2023-03-26T22:49:53;99934.28;;;5.26;70.53
10064;BME280;5071;52.360;13.134;2023-03-26T22:54:56;99937.81;;;5.11;71.43
10064;BME280;5071;52.360;13.134;2023-03-26T22:59:58;99946.59;;;5.02;72.26
10064;BME280;5071;52.360;13.134;2023-03-26T23:05:00;99944.88;;;4.98;72.50
10064;BME280;5071;52.360;13.134;2023-03-26T23:10:05;99955.41;;;4.92;73.05
10064;BME280;5071;52.360;13.134;2023-03-26T23:15:08;99953.66;;;4.88;73.55
10064;BME280;5071;52.360;13.134;2023-03-26T23:20:11;99972.97;;;4.81;73.93
10064;BME280;5071;52.360;13.134;2023-03-26T23:25:14;99967.72;;;4.72;73.98
10064;BME280;5071;52.360;13.134;2023-03-26T23:30:16;99981.72;;;4.74;73.92
10064;BME280;5071;52.360;13.134;2023-03-26T23:35:19;99990.50;;;4.70;73.87
10064;BME280;5071;52.360;13.134;2023-03-26T23:40:22;100002.75;;;4.69;74.56
10064;BME280;5071;52.360;13.134;2023-03-26T23:45:24;100003.66;;;4.60;74.83
10064;BME280;5071;52.360;13.134;2023-03-26T23:50:26;100014.13;;;4.56;74.88
10064;BME280;5071;52.360;13.134;2023-03-26T23:55:30;100025.53;;;4.50;74.92
